sensor_id;sensor_type;location;lat;lon;timestamp;P1;durP1;ratioP1;P2;durP2;ratioP2
70924;SDS011;58577;52.410;13.242;2022-10-30T00:00:08;28.90;;;18.05;;
70924;SDS011;58577;52.410;13.242;2022-10-30T00:02:57;32.83;;;20.00;;
70924;SDS011;58577;52.410;13.242;2022-10-30T00:05:43;36.05;;;19.85;;
70924;SDS011;58577;52.410;13.242;2022-10-30T00:08:30;36.05;;;21.63;;
70924;SDS011;58577;52.410;13.242;2022-10-30T00:11:16;33.88;;;20.45;;
70924;SDS011;58577;52.410;13.242;2022-10-30T00:14:02;41.60;;;23.50;;
70924;SDS011;58577;52.410;13.242;2022-10-30T00:16:48;35.13;;;22.30;;
70924;SDS011;58577;52.410;13.242;2022-10-30T00:19:33;35.22;;;22.75;;
70924;SDS011;58577;52.410;13.242;2022-10-30T00:22:19;35.00;;;20.38;;
70924;SDS011;58577;52.410;13.242;2022-10-30T00:25:05;35.38;;;22.20;;
70924;SDS011;58577;52.410;13.242;2022-10-30T00:27:51;33.78;;;20.38;;
70924;SDS011;58577;52.410;13.242;2022-10-30T00:30:37;33.55;;;20.75;;
70924;SDS011;58577;52.410;13.242;2022-10-30T00:33:23;38.97;;;20.63;;
70924;SDS011;58577;52.410;13.242;2022-10-30T00:36:09;32.78;;;21.08;;
70924;SDS011;58577;52.410;13.242;2022-10-30T00:38:54;32.38;;;21.40;;
70924;SDS011;58577;52.410;13.242;2022-10-30T00:41:40;34.72;;;19.98;;
70924;SDS011;58577;52.410;13.242;2022-10-30T00:44:46;29.67;;;18.88;;
70924;SDS011;58577;52.410;13.242;2022-10-30T00:47:35;31.98;;;18.73;;
70924;SDS011;58577;52.410;13.242;2022-10-30T00:50:41;28.38;;;19.90;;
70924;SDS011;58577;52.410;13.242;2022-10-30T00:53:27;31.08;;;19.00;;
70924;SDS011;58577;52.410;13.242;2022-10-30T00:56:14;32.03;;;20.15;;
70924;SDS011;58577;52.410;13.242;2022-10-30T01:01:55;32.70;;;20.58;;
70924;SDS011;58577;52.410;13.242;2022-10-30T01:04:42;40.42;;;22.33;;
70924;SDS011;58577;52.410;13.242;2022-10-30T01:07:29;36.33;;;21.08;;
70924;SDS011;58577;52.410;13.242;2022-10-30T01:10:15;34.35;;;20.58;;
70924;SDS011;58577;52.410;13.242;2022-10-30T01:13:02;31.52;;;21.00;;
70924;SDS011;58577;52.410;13.242;2022-10-30T01:15:52;32.15;;;21.70;;
70924;SDS011;58577;52.410;13.242;2022-10-30T01:19:01;32.17;;;21.67;;
70924;SDS011;58577;52.410;13.242;2022-10-30T01:22:15;33.70;;;22.77;;
70924;SDS011;58577;52.410;13.242;2022-10-30T01:31:48;37.03;;;23.75;;
70924;SDS011;58577;52.410;13.242;2022-10-30T01:37:37;40.15;;;23.55;;
70924;SDS011;58577;52.410;13.242;2022-10-30T01:40:31;44.95;;;25.58;;
70924;SDS011;58577;52.410;13.242;2022-10-30T01:43:17;43.40;;;25.40;;
70924;SDS011;58577;52.410;13.242;2022-10-30T01:46:07;38.78;;;23.70;;
70924;SDS011;58577;52.410;13.242;2022-10-30T01:49:20;35.80;;;22.75;;
70924;SDS011;58577;52.410;13.242;2022-10-30T01:58:35;40.97;;;23.30;;
70924;SDS011;58577;52.410;13.242;2022-10-30T02:01:32;39.47;;;22.17;;
70924;SDS011;58577;52.410;13.242;2022-10-30T02:04:19;38.28;;;21.95;;
70924;SDS011;58577;52.410;13.242;2022-10-30T02:07:06;40.22;;;25.05;;
70924;SDS011;58577;52.410;13.242;2022-10-30T02:09:58;39.05;;;24.92;;
70924;SDS011;58577;52.410;13.242;2022-10-30T02:12:46;42.65;;;25.20;;
70924;SDS011;58577;52.410;13.242;2022-10-30T02:15:33;40.55;;;25.48;;
70924;SDS011;58577;52.410;13.242;2022-10-30T02:18:20;39.17;;;22.52;;
70924;SDS011;58577;52.410;13.242;2022-10-30T02:21:06;41.13;;;24.17;;
70924;SDS011;58577;52.410;13.242;2022-10-30T02:23:53;41.53;;;25.88;;
70924;SDS011;58577;52.410;13.242;2022-10-30T02:26:39;40.88;;;25.27;;
70924;SDS011;58577;52.410;13.242;2022-10-30T02:29:26;41.90;;;25.67;;
70924;SDS011;58577;52.410;13.242;2022-10-30T02:32:12;41.92;;;25.58;;
70924;SDS011;58577;52.410;13.242;2022-10-30T02:34:58;38.78;;;24.02;;
70924;SDS011;58577;52.410;13.242;2022-10-30T02:37:46;37.70;;;24.15;;
70924;SDS011;58577;52.410;13.242;2022-10-30T02:40:33;39.08;;;24.27;;
70924;SDS011;58577;52.410;13.242;2022-10-30T02:43:18;38.85;;;24.33;;
70924;SDS011;58577;52.410;13.242;2022-10-30T02:46:04;41.03;;;25.05;;
70924;SDS011;58577;52.410;13.242;2022-10-30T02:48:51;41.08;;;25.55;;
70924;SDS011;58577;52.410;13.242;2022-10-30T02:51:36;43.85;;;26.02;;
70924;SDS011;58577;52.410;13.242;2022-10-30T02:54:22;43.83;;;25.88;;
70924;SDS011;58577;52.410;13.242;2022-10-30T02:57:08;37.20;;;23.77;;
70924;SDS011;58577;52.410;13.242;2022-10-30T02:59:54;36.17;;;24.08;;
70924;SDS011;58577;52.410;13.242;2022-10-30T03:02:40;38.42;;;22.70;;
70924;SDS011;58577;52.410;13.242;2022-10-30T03:05:26;37.65;;;24.00;;
70924;SDS011;58577;52.410;13.242;2022-10-30T03:08:11;37.17;;;22.73;;
70924;SDS011;58577;52.410;13.242;2022-10-30T03:11:01;35.20;;;22.15;;
70924;SDS011;58577;52.410;13.242;2022-10-30T03:13:49;33.95;;;22.35;;
70924;SDS011;58577;52.410;13.242;2022-10-30T03:16:36;37.15;;;22.90;;
70924;SDS011;58577;52.410;13.242;2022-10-30T03:19:22;35.00;;;22.17;;
70924;SDS011;58577;52.410;13.242;2022-10-30T03:22:07;37.42;;;21.90;;
70924;SDS011;58577;52.410;13.242;2022-10-30T03:24:56;33.03;;;20.45;;
70924;SDS011;58577;52.410;13.242;2022-10-30T03:27:41;35.92;;;20.77;;
70924;SDS011;58577;52.410;13.242;2022-10-30T03:30:27;31.38;;;21.15;;
70924;SDS011;58577;52.410;13.242;2022-10-30T03:33:13;34.30;;;19.63;;
70924;SDS011;58577;52.410;13.242;2022-10-30T03:35:59;33.83;;;21.55;;
70924;SDS011;58577;52.410;13.242;2022-10-30T03:38:45;32.67;;;20.17;;
70924;SDS011;58577;52.410;13.242;2022-10-30T03:41:34;47.88;;;26.60;;
70924;SDS011;58577;52.410;13.242;2022-10-30T03:44:20;39.40;;;22.83;;
70924;SDS011;58577;52.410;13.242;2022-10-30T03:47:07;36.88;;;24.38;;
70924;SDS011;58577;52.410;13.242;2022-10-30T03:50:04;35.42;;;22.38;;
70924;SDS011;58577;52.410;13.242;2022-10-30T03:52:52;40.20;;;22.48;;
70924;SDS011;58577;52.410;13.242;2022-10-30T03:55:38;35.08;;;22.73;;
70924;SDS011;58577;52.410;13.242;2022-10-30T03:58:25;34.35;;;22.02;;
70924;SDS011;58577;52.410;13.242;2022-10-30T04:01:16;37.03;;;23.23;;
70924;SDS011;58577;52.410;13.242;2022-10-30T04:04:06;40.40;;;23.67;;
70924;SDS011;58577;52.410;13.242;2022-10-30T04:06:52;34.35;;;23.52;;
70924;SDS011;58577;52.410;13.242;2022-10-30T04:09:38;36.30;;;23.05;;
70924;SDS011;58577;52.410;13.242;2022-10-30T04:12:23;34.75;;;21.48;;
70924;SDS011;58577;52.410;13.242;2022-10-30T04:15:09;36.72;;;22.50;;
70924;SDS011;58577;52.410;13.242;2022-10-30T04:17:55;34.40;;;22.35;;
70924;SDS011;58577;52.410;13.242;2022-10-30T04:20:41;34.80;;;19.67;;
70924;SDS011;58577;52.410;13.242;2022-10-30T04:23:28;37.17;;;20.48;;
70924;SDS011;58577;52.410;13.242;2022-10-30T04:26:14;35.65;;;20.20;;
70924;SDS011;58577;52.410;13.242;2022-10-30T04:29:02;31.70;;;19.65;;
70924;SDS011;58577;52.410;13.242;2022-10-30T04:31:47;35.75;;;21.23;;
70924;SDS011;58577;52.410;13.242;2022-10-30T04:34:38;36.67;;;21.88;;
70924;SDS011;58577;52.410;13.242;2022-10-30T04:37:24;35.58;;;22.63;;
70924;SDS011;58577;52.410;13.242;2022-10-30T04:40:10;36.45;;;21.13;;
70924;SDS011;58577;52.410;13.242;2022-10-30T04:43:07;34.22;;;21.20;;
70924;SDS011;58577;52.410;13.242;2022-10-30T04:45:54;37.10;;;19.77;;
70924;SDS011;58577;52.410;13.242;2022-10-30T04:48:40;30.55;;;19.60;;
70924;SDS011;58577;52.410;13.242;2022-10-30T04:51:27;32.72;;;22.00;;
70924;SDS011;58577;52.410;13.242;2022-10-30T04:54:13;39.00;;;22.27;;
70924;SDS011;58577;52.410;13.242;2022-10-30T04:56:58;36.33;;;21.58;;
70924;SDS011;58577;52.410;13.242;2022-10-30T04:59:44;34.45;;;21.05;;
70924;SDS011;58577;52.410;13.242;2022-10-30T05:02:30;33.85;;;20.92;;
70924;SDS011;58577;52.410;13.242;2022-10-30T05:05:17;33.03;;;21.10;;
70924;SDS011;58577;52.410;13.242;2022-10-30T05:08:03;37.10;;;20.05;;
70924;SDS011;58577;52.410;13.242;2022-10-30T05:10:49;36.22;;;21.90;;
70924;SDS011;58577;52.410;13.242;2022-10-30T05:13:34;31.23;;;20.73;;
70924;SDS011;58577;52.410;13.242;2022-10-30T05:16:20;32.17;;;19.90;;
70924;SDS011;58577;52.410;13.242;2022-10-30T05:19:06;30.98;;;21.05;;
70924;SDS011;58577;52.410;13.242;2022-10-30T05:21:53;30.95;;;20.13;;
70924;SDS011;58577;52.410;13.242;2022-10-30T05:24:39;30.08;;;19.15;;
70924;SDS011;58577;52.410;13.242;2022-10-30T05:27:25;29.95;;;19.13;;
70924;SDS011;58577;52.410;13.242;2022-10-30T05:30:11;36.10;;;21.25;;
70924;SDS011;58577;52.410;13.242;2022-10-30T05:33:01;39.92;;;21.70;;
70924;SDS011;58577;52.410;13.242;2022-10-30T05:35:49;34.20;;;21.60;;
70924;SDS011;58577;52.410;13.242;2022-10-30T05:38:34;35.17;;;22.23;;
70924;SDS011;58577;52.410;13.242;2022-10-30T05:41:21;43.13;;;23.40;;
70924;SDS011;58577;52.410;13.242;2022-10-30T05:44:07;36.33;;;23.30;;
70924;SDS011;58577;52.410;13.242;2022-10-30T05:46:53;35.40;;;21.63;;
70924;SDS011;58577;52.410;13.242;2022-10-30T05:49:51;33.95;;;22.05;;
70924;SDS011;58577;52.410;13.242;2022-10-30T05:52:39;35.35;;;21.80;;
70924;SDS011;58577;52.410;13.242;2022-10-30T05:55:26;31.05;;;20.63;;
70924;SDS011;58577;52.410;13.242;2022-10-30T05:58:26;32.00;;;20.67;;
70924;SDS011;58577;52.410;13.242;2022-10-30T06:01:14;33.35;;;21.27;;
70924;SDS011;58577;52.410;13.242;2022-10-30T06:04:03;38.10;;;21.77;;
70924;SDS011;58577;52.410;13.242;2022-10-30T06:06:49;39.78;;;23.85;;
70924;SDS011;58577;52.410;13.242;2022-10-30T06:09:35;40.97;;;24.30;;
70924;SDS011;58577;52.410;13.242;2022-10-30T06:12:24;40.05;;;24.77;;
70924;SDS011;58577;52.410;13.242;2022-10-30T06:15:27;35.67;;;22.17;;
70924;SDS011;58577;52.410;13.242;2022-10-30T06:18:14;35.17;;;22.45;;
70924;SDS011;58577;52.410;13.242;2022-10-30T06:21:02;35.10;;;21.35;;
70924;SDS011;58577;52.410;13.242;2022-10-30T06:24:06;34.08;;;20.45;;
70924;SDS011;58577;52.410;13.242;2022-10-30T06:27:08;34.45;;;20.50;;
70924;SDS011;58577;52.410;13.242;2022-10-30T06:29:54;33.55;;;20.33;;
70924;SDS011;58577;52.410;13.242;2022-10-30T06:32:40;35.60;;;21.10;;
70924;SDS011;58577;52.410;13.242;2022-10-30T06:35:26;31.50;;;21.05;;
70924;SDS011;58577;52.410;13.242;2022-10-30T06:38:13;40.17;;;22.65;;
70924;SDS011;58577;52.410;13.242;2022-10-30T06:41:00;37.97;;;22.55;;
70924;SDS011;58577;52.410;13.242;2022-10-30T06:43:56;35.67;;;21.55;;
70924;SDS011;58577;52.410;13.242;2022-10-30T06:46:43;38.28;;;22.10;;
70924;SDS011;58577;52.410;13.242;2022-10-30T06:49:29;37.20;;;20.40;;
70924;SDS011;58577;52.410;13.242;2022-10-30T06:52:15;37.58;;;20.27;;
70924;SDS011;58577;52.410;13.242;2022-10-30T06:55:02;36.45;;;20.27;;
70924;SDS011;58577;52.410;13.242;2022-10-30T06:58:09;30.98;;;19.83;;
70924;SDS011;58577;52.410;13.242;2022-10-30T07:01:13;28.10;;;18.90;;
70924;SDS011;58577;52.410;13.242;2022-10-30T07:04:15;31.92;;;17.95;;
70924;SDS011;58577;52.410;13.242;2022-10-30T07:07:02;29.65;;;18.85;;
70924;SDS011;58577;52.410;13.242;2022-10-30T07:09:49;29.63;;;17.92;;
70924;SDS011;58577;52.410;13.242;2022-10-30T07:12:38;29.23;;;17.83;;
70924;SDS011;58577;52.410;13.242;2022-10-30T07:15:41;24.88;;;15.57;;
70924;SDS011;58577;52.410;13.242;2022-10-30T07:18:38;28.35;;;16.45;;
70924;SDS011;58577;52.410;13.242;2022-10-30T07:21:25;25.90;;;15.38;;
70924;SDS011;58577;52.410;13.242;2022-10-30T07:24:11;30.63;;;15.38;;
70924;SDS011;58577;52.410;13.242;2022-10-30T07:27:07;26.55;;;15.30;;
70924;SDS011;58577;52.410;13.242;2022-10-30T07:30:11;28.75;;;16.77;;
70924;SDS011;58577;52.410;13.242;2022-10-30T07:33:17;24.50;;;14.50;;
70924;SDS011;58577;52.410;13.242;2022-10-30T07:36:17;25.92;;;15.05;;
70924;SDS011;58577;52.410;13.242;2022-10-30T07:39:26;27.67;;;13.85;;
70924;SDS011;58577;52.410;13.242;2022-10-30T07:42:21;23.70;;;14.70;;
70924;SDS011;58577;52.410;13.242;2022-10-30T07:45:26;26.25;;;14.25;;
70924;SDS011;58577;52.410;13.242;2022-10-30T07:48:35;25.08;;;13.38;;
70924;SDS011;58577;52.410;13.242;2022-10-30T07:51:25;23.80;;;14.40;;
70924;SDS011;58577;52.410;13.242;2022-10-30T07:54:11;24.65;;;15.23;;
70924;SDS011;58577;52.410;13.242;2022-10-30T07:56:57;28.17;;;15.52;;
70924;SDS011;58577;52.410;13.242;2022-10-30T08:00:21;27.00;;;15.85;;
70924;SDS011;58577;52.410;13.242;2022-10-30T08:03:17;26.20;;;14.48;;
70924;SDS011;58577;52.410;13.242;2022-10-30T08:06:10;27.70;;;15.07;;
70924;SDS011;58577;52.410;13.242;2022-10-30T08:08:57;26.92;;;14.90;;
70924;SDS011;58577;52.410;13.242;2022-10-30T08:11:45;25.92;;;14.50;;
70924;SDS011;58577;52.410;13.242;2022-10-30T08:14:31;22.13;;;12.93;;
70924;SDS011;58577;52.410;13.242;2022-10-30T08:17:19;21.25;;;12.45;;
70924;SDS011;58577;52.410;13.242;2022-10-30T08:20:09;21.92;;;12.90;;
70924;SDS011;58577;52.410;13.242;2022-10-30T08:22:56;21.85;;;11.60;;
70924;SDS011;58577;52.410;13.242;2022-10-30T08:25:43;25.70;;;12.13;;
70924;SDS011;58577;52.410;13.242;2022-10-30T08:28:30;23.80;;;10.95;;
70924;SDS011;58577;52.410;13.242;2022-10-30T08:31:16;25.58;;;10.95;;
70924;SDS011;58577;52.410;13.242;2022-10-30T08:34:20;19.48;;;10.45;;
70924;SDS011;58577;52.410;13.242;2022-10-30T08:37:10;18.63;;;10.65;;
70924;SDS011;58577;52.410;13.242;2022-10-30T08:39:57;19.42;;;10.73;;
70924;SDS011;58577;52.410;13.242;2022-10-30T08:43:06;19.13;;;10.05;;
70924;SDS011;58577;52.410;13.242;2022-10-30T08:45:53;22.70;;;9.65;;
70924;SDS011;58577;52.410;13.242;2022-10-30T08:48:42;16.83;;;9.80;;
70924;SDS011;58577;52.410;13.242;2022-10-30T08:51:32;20.95;;;10.27;;
70924;SDS011;58577;52.410;13.242;2022-10-30T08:54:18;21.33;;;10.02;;
70924;SDS011;58577;52.410;13.242;2022-10-30T08:57:05;18.33;;;8.73;;
70924;SDS011;58577;52.410;13.242;2022-10-30T08:59:51;20.20;;;10.43;;
70924;SDS011;58577;52.410;13.242;2022-10-30T09:03:02;19.63;;;8.93;;
70924;SDS011;58577;52.410;13.242;2022-10-30T09:06:20;20.90;;;9.63;;
70924;SDS011;58577;52.410;13.242;2022-10-30T09:09:37;16.70;;;8.93;;
70924;SDS011;58577;52.410;13.242;2022-10-30T09:12:24;18.38;;;8.55;;
70924;SDS011;58577;52.410;13.242;2022-10-30T09:15:09;14.75;;;8.43;;
70924;SDS011;58577;52.410;13.242;2022-10-30T09:18:07;18.85;;;8.50;;
70924;SDS011;58577;52.410;13.242;2022-10-30T09:20:53;14.95;;;8.07;;
70924;SDS011;58577;52.410;13.242;2022-10-30T09:23:40;16.33;;;7.97;;
70924;SDS011;58577;52.410;13.242;2022-10-30T09:27:03;17.67;;;8.45;;
70924;SDS011;58577;52.410;13.242;2022-10-30T09:29:54;18.50;;;8.48;;
70924;SDS011;58577;52.410;13.242;2022-10-30T09:32:42;18.80;;;8.20;;
70924;SDS011;58577;52.410;13.242;2022-10-30T09:35:35;15.18;;;8.60;;
70924;SDS011;58577;52.410;13.242;2022-10-30T09:38:21;16.13;;;7.65;;
70924;SDS011;58577;52.410;13.242;2022-10-30T09:41:20;17.65;;;7.82;;
70924;SDS011;58577;52.410;13.242;2022-10-30T09:44:59;17.38;;;8.15;;
70924;SDS011;58577;52.410;13.242;2022-10-30T09:51:17;18.02;;;10.27;;
70924;SDS011;58577;52.410;13.242;2022-10-30T09:57:26;16.48;;;7.70;;
70924;SDS011;58577;52.410;13.242;2022-10-30T10:00:21;14.48;;;7.22;;
70924;SDS011;58577;52.410;13.242;2022-10-30T10:07:04;13.25;;;6.60;;
70924;SDS011;58577;52.410;13.242;2022-10-30T10:10:38;17.65;;;7.32;;
70924;SDS011;58577;52.410;13.242;2022-10-30T10:13:37;12.48;;;6.45;;
70924;SDS011;58577;52.410;13.242;2022-10-30T10:16:30;14.05;;;7.05;;
70924;SDS011;58577;52.410;13.242;2022-10-30T10:19:22;14.63;;;6.90;;
70924;SDS011;58577;52.410;13.242;2022-10-30T10:22:21;18.63;;;6.60;;
70924;SDS011;58577;52.410;13.242;2022-10-30T10:25:12;16.50;;;6.53;;
70924;SDS011;58577;52.410;13.242;2022-10-30T10:34:31;13.23;;;5.90;;
70924;SDS011;58577;52.410;13.242;2022-10-30T10:37:44;15.38;;;6.20;;
70924;SDS011;58577;52.410;13.242;2022-10-30T10:50:02;15.35;;;5.95;;
70924;SDS011;58577;52.410;13.242;2022-10-30T10:53:04;15.10;;;5.88;;
70924;SDS011;58577;52.410;13.242;2022-10-30T10:55:56;16.35;;;6.30;;
70924;SDS011;58577;52.410;13.242;2022-10-30T10:58:50;23.55;;;9.95;;
70924;SDS011;58577;52.410;13.242;2022-10-30T11:01:42;18.30;;;9.35;;
70924;SDS011;58577;52.410;13.242;2022-10-30T11:04:38;16.20;;;6.15;;
70924;SDS011;58577;52.410;13.242;2022-10-30T11:07:27;16.10;;;6.07;;
70924;SDS011;58577;52.410;13.242;2022-10-30T11:10:17;16.42;;;6.60;;
70924;SDS011;58577;52.410;13.242;2022-10-30T11:13:04;15.50;;;5.72;;
70924;SDS011;58577;52.410;13.242;2022-10-30T11:16:12;15.30;;;5.75;;
70924;SDS011;58577;52.410;13.242;2022-10-30T11:19:12;14.68;;;5.50;;
70924;SDS011;58577;52.410;13.242;2022-10-30T11:21:57;10.18;;;4.97;;
70924;SDS011;58577;52.410;13.242;2022-10-30T11:24:44;15.30;;;5.82;;
70924;SDS011;58577;52.410;13.242;2022-10-30T11:27:30;12.07;;;5.70;;
70924;SDS011;58577;52.410;13.242;2022-10-30T11:30:17;11.65;;;6.10;;
70924;SDS011;58577;52.410;13.242;2022-10-30T11:33:19;15.02;;;6.15;;
70924;SDS011;58577;52.410;13.242;2022-10-30T11:36:07;13.25;;;5.30;;
70924;SDS011;58577;52.410;13.242;2022-10-30T11:38:54;15.45;;;6.55;;
70924;SDS011;58577;52.410;13.242;2022-10-30T11:42:03;14.17;;;5.77;;
70924;SDS011;58577;52.410;13.242;2022-10-30T11:44:53;12.93;;;5.63;;
70924;SDS011;58577;52.410;13.242;2022-10-30T11:47:39;15.55;;;5.82;;
70924;SDS011;58577;52.410;13.242;2022-10-30T11:53:23;13.73;;;5.43;;
70924;SDS011;58577;52.410;13.242;2022-10-30T11:56:20;18.58;;;8.52;;
70924;SDS011;58577;52.410;13.242;2022-10-30T11:59:13;16.40;;;6.30;;
70924;SDS011;58577;52.410;13.242;2022-10-30T12:02:23;14.48;;;6.15;;
70924;SDS011;58577;52.410;13.242;2022-10-30T12:08:20;14.30;;;5.85;;
70924;SDS011;58577;52.410;13.242;2022-10-30T12:11:06;12.13;;;5.30;;
70924;SDS011;58577;52.410;13.242;2022-10-30T12:13:53;15.15;;;6.43;;
70924;SDS011;58577;52.410;13.242;2022-10-30T12:16:43;12.35;;;5.35;;
70924;SDS011;58577;52.410;13.242;2022-10-30T12:19:31;18.08;;;5.88;;
70924;SDS011;58577;52.410;13.242;2022-10-30T12:22:35;14.18;;;5.38;;
70924;SDS011;58577;52.410;13.242;2022-10-30T12:25:22;16.10;;;6.10;;
70924;SDS011;58577;52.410;13.242;2022-10-30T12:28:16;13.98;;;5.78;;
70924;SDS011;58577;52.410;13.242;2022-10-30T12:34:04;14.02;;;5.00;;
70924;SDS011;58577;52.410;13.242;2022-10-30T12:37:02;17.02;;;5.75;;
70924;SDS011;58577;52.410;13.242;2022-10-30T12:40:07;12.43;;;5.30;;
70924;SDS011;58577;52.410;13.242;2022-10-30T12:45:53;15.68;;;5.60;;
70924;SDS011;58577;52.410;13.242;2022-10-30T12:48:46;15.38;;;5.60;;
70924;SDS011;58577;52.410;13.242;2022-10-30T12:51:40;16.10;;;5.80;;
70924;SDS011;58577;52.410;13.242;2022-10-30T13:00:15;15.95;;;6.20;;
70924;SDS011;58577;52.410;13.242;2022-10-30T13:03:12;11.50;;;5.35;;
70924;SDS011;58577;52.410;13.242;2022-10-30T13:06:27;17.40;;;5.65;;
70924;SDS011;58577;52.410;13.242;2022-10-30T13:12:23;13.75;;;5.30;;
70924;SDS011;58577;52.410;13.242;2022-10-30T13:15:18;14.73;;;5.78;;
70924;SDS011;58577;52.410;13.242;2022-10-30T13:18:13;14.82;;;5.75;;
70924;SDS011;58577;52.410;13.242;2022-10-30T13:24:03;14.20;;;5.65;;
70924;SDS011;58577;52.410;13.242;2022-10-30T13:33:04;17.48;;;5.60;;
70924;SDS011;58577;52.410;13.242;2022-10-30T13:36:01;17.33;;;5.50;;
70924;SDS011;58577;52.410;13.242;2022-10-30T13:38:58;17.40;;;5.35;;
70924;SDS011;58577;52.410;13.242;2022-10-30T13:47:54;16.13;;;6.43;;
70924;SDS011;58577;52.410;13.242;2022-10-30T13:53:42;12.93;;;5.95;;
70924;SDS011;58577;52.410;13.242;2022-10-30T13:56:33;12.88;;;5.88;;
70924;SDS011;58577;52.410;13.242;2022-10-30T14:02:27;14.70;;;6.03;;
70924;SDS011;58577;52.410;13.242;2022-10-30T14:05:41;17.45;;;5.78;;
70924;SDS011;58577;52.410;13.242;2022-10-30T14:11:22;13.30;;;5.32;;
70924;SDS011;58577;52.410;13.242;2022-10-30T14:17:13;17.45;;;5.32;;
70924;SDS011;58577;52.410;13.242;2022-10-30T14:28:55;14.52;;;6.15;;
70924;SDS011;58577;52.410;13.242;2022-10-30T14:31:41;14.45;;;5.70;;
70924;SDS011;58577;52.410;13.242;2022-10-30T14:34:42;12.93;;;5.80;;
70924;SDS011;58577;52.410;13.242;2022-10-30T14:43:35;20.58;;;6.50;;
70924;SDS011;58577;52.410;13.242;2022-10-30T14:46:36;13.48;;;5.40;;
70924;SDS011;58577;52.410;13.242;2022-10-30T14:49:34;17.42;;;5.97;;
70924;SDS011;58577;52.410;13.242;2022-10-30T14:55:22;14.13;;;5.82;;
70924;SDS011;58577;52.410;13.242;2022-10-30T14:58:18;14.95;;;6.20;;
70924;SDS011;58577;52.410;13.242;2022-10-30T15:04:00;15.50;;;5.90;;
70924;SDS011;58577;52.410;13.242;2022-10-30T15:10:30;15.73;;;6.50;;
70924;SDS011;58577;52.410;13.242;2022-10-30T15:13:17;16.05;;;6.43;;
70924;SDS011;58577;52.410;13.242;2022-10-30T15:16:06;13.63;;;6.50;;
70924;SDS011;58577;52.410;13.242;2022-10-30T15:18:58;15.80;;;7.07;;
70924;SDS011;58577;52.410;13.242;2022-10-30T15:21:53;18.95;;;7.93;;
70924;SDS011;58577;52.410;13.242;2022-10-30T15:24:41;17.10;;;6.78;;
70924;SDS011;58577;52.410;13.242;2022-10-30T15:27:26;18.88;;;6.50;;
70924;SDS011;58577;52.410;13.242;2022-10-30T15:30:15;17.33;;;6.70;;
70924;SDS011;58577;52.410;13.242;2022-10-30T15:33:15;16.58;;;6.97;;
70924;SDS011;58577;52.410;13.242;2022-10-30T15:39:03;14.40;;;6.70;;
70924;SDS011;58577;52.410;13.242;2022-10-30T15:41:50;15.27;;;7.07;;
70924;SDS011;58577;52.410;13.242;2022-10-30T15:44:39;18.75;;;8.70;;
70924;SDS011;58577;52.410;13.242;2022-10-30T15:47:27;17.15;;;6.88;;
70924;SDS011;58577;52.410;13.242;2022-10-30T15:50:14;17.30;;;7.10;;
70924;SDS011;58577;52.410;13.242;2022-10-30T15:53:01;18.08;;;7.90;;
70924;SDS011;58577;52.410;13.242;2022-10-30T15:55:47;16.25;;;8.00;;
70924;SDS011;58577;52.410;13.242;2022-10-30T15:58:33;17.50;;;7.95;;
70924;SDS011;58577;52.410;13.242;2022-10-30T16:01:34;19.08;;;9.32;;
70924;SDS011;58577;52.410;13.242;2022-10-30T16:04:30;18.52;;;8.40;;
70924;SDS011;58577;52.410;13.242;2022-10-30T16:07:22;17.88;;;7.57;;
70924;SDS011;58577;52.410;13.242;2022-10-30T16:10:13;17.65;;;8.38;;
70924;SDS011;58577;52.410;13.242;2022-10-30T16:13:01;18.20;;;8.25;;
70924;SDS011;58577;52.410;13.242;2022-10-30T16:15:48;79.35;;;43.50;;
70924;SDS011;58577;52.410;13.242;2022-10-30T16:18:34;50.55;;;26.65;;
70924;SDS011;58577;52.410;13.242;2022-10-30T16:21:21;29.30;;;16.02;;
70924;SDS011;58577;52.410;13.242;2022-10-30T16:24:08;16.02;;;7.97;;
70924;SDS011;58577;52.410;13.242;2022-10-30T16:27:01;22.40;;;11.25;;
70924;SDS011;58577;52.410;13.242;2022-10-30T16:29:52;21.58;;;9.48;;
70924;SDS011;58577;52.410;13.242;2022-10-30T16:32:49;20.45;;;9.70;;
70924;SDS011;58577;52.410;13.242;2022-10-30T16:35:39;18.73;;;8.75;;
70924;SDS011;58577;52.410;13.242;2022-10-30T16:38:27;14.75;;;7.80;;
70924;SDS011;58577;52.410;13.242;2022-10-30T16:41:15;17.00;;;7.75;;
70924;SDS011;58577;52.410;13.242;2022-10-30T16:44:08;20.20;;;8.18;;
70924;SDS011;58577;52.410;13.242;2022-10-30T16:50:00;17.25;;;8.70;;
70924;SDS011;58577;52.410;13.242;2022-10-30T16:55:36;21.20;;;8.30;;
70924;SDS011;58577;52.410;13.242;2022-10-30T16:58:23;18.40;;;7.82;;
70924;SDS011;58577;52.410;13.242;2022-10-30T17:01:13;17.67;;;9.23;;
70924;SDS011;58577;52.410;13.242;2022-10-30T17:03:59;20.73;;;9.32;;
70924;SDS011;58577;52.410;13.242;2022-10-30T17:06:45;20.77;;;9.45;;
70924;SDS011;58577;52.410;13.242;2022-10-30T17:09:35;22.48;;;9.23;;
70924;SDS011;58577;52.410;13.242;2022-10-30T17:12:23;17.05;;;8.32;;
70924;SDS011;58577;52.410;13.242;2022-10-30T17:15:11;17.58;;;8.90;;
70924;SDS011;58577;52.410;13.242;2022-10-30T17:18:08;19.15;;;8.43;;
70924;SDS011;58577;52.410;13.242;2022-10-30T17:20:57;17.65;;;8.75;;
70924;SDS011;58577;52.410;13.242;2022-10-30T17:23:49;19.23;;;9.68;;
70924;SDS011;58577;52.410;13.242;2022-10-30T17:26:37;18.73;;;8.80;;
70924;SDS011;58577;52.410;13.242;2022-10-30T17:32:28;21.13;;;10.80;;
70924;SDS011;58577;52.410;13.242;2022-10-30T17:35:26;20.60;;;11.48;;
70924;SDS011;58577;52.410;13.242;2022-10-30T17:38:12;19.73;;;10.73;;
70924;SDS011;58577;52.410;13.242;2022-10-30T17:40:58;21.33;;;10.77;;
70924;SDS011;58577;52.410;13.242;2022-10-30T17:43:48;20.75;;;12.10;;
70924;SDS011;58577;52.410;13.242;2022-10-30T17:46:36;31.73;;;19.95;;
70924;SDS011;58577;52.410;13.242;2022-10-30T17:49:29;44.20;;;27.25;;
70924;SDS011;58577;52.410;13.242;2022-10-30T17:52:17;41.92;;;27.33;;
70924;SDS011;58577;52.410;13.242;2022-10-30T17:55:17;43.58;;;29.23;;
70924;SDS011;58577;52.410;13.242;2022-10-30T17:58:07;58.30;;;39.20;;
70924;SDS011;58577;52.410;13.242;2022-10-30T18:00:53;64.05;;;45.80;;
70924;SDS011;58577;52.410;13.242;2022-10-30T18:03:38;63.13;;;42.80;;
70924;SDS011;58577;52.410;13.242;2022-10-30T18:06:25;40.97;;;25.80;;
70924;SDS011;58577;52.410;13.242;2022-10-30T18:09:12;38.83;;;24.88;;
70924;SDS011;58577;52.410;13.242;2022-10-30T18:11:57;42.97;;;30.10;;
70924;SDS011;58577;52.410;13.242;2022-10-30T18:14:43;33.75;;;18.73;;
70924;SDS011;58577;52.410;13.242;2022-10-30T18:17:29;29.40;;;18.50;;
70924;SDS011;58577;52.410;13.242;2022-10-30T18:20:15;31.52;;;18.20;;
70924;SDS011;58577;52.410;13.242;2022-10-30T18:23:01;38.35;;;25.55;;
70924;SDS011;58577;52.410;13.242;2022-10-30T18:25:47;36.40;;;25.63;;
70924;SDS011;58577;52.410;13.242;2022-10-30T18:28:34;41.30;;;26.00;;
70924;SDS011;58577;52.410;13.242;2022-10-30T18:31:21;41.33;;;28.50;;
70924;SDS011;58577;52.410;13.242;2022-10-30T18:34:17;47.45;;;31.73;;
70924;SDS011;58577;52.410;13.242;2022-10-30T18:37:07;46.10;;;32.85;;
70924;SDS011;58577;52.410;13.242;2022-10-30T18:39:53;38.85;;;27.58;;